sensor_id;sensor_type;location;lat;lon;timestamp;pressure;altitude;pressure_sealevel;temperature;humidity
60845;BME280;47984;51.250;6.712;2022-08-11T00:00:12;101968.34;;;17.80;32.32
60845;BME280;47984;51.250;6.712;2022-08-11T00:02:50;101958.88;;;17.76;32.58
60845;BME280;47984;51.250;6.712;2022-08-11T00:05:20;101961.75;;;17.69;32.38
60845;BME280;47984;51.250;6.712;2022-08-11T00:07:55;101959.22;;;17.66;32.81
60845;BME280;47984;51.250;6.712;2022-08-11T00:10:24;101962.88;;;17.62;32.61
60845;BME280;47984;51.250;6.712;2022-08-11T00:12:57;101958.72;;;17.57;32.29
60845;BME280;47984;51.250;6.712;2022-08-11T00:15:26;101963.25;;;17.53;32.65
60845;BME280;47984;51.250;6.712;2022-08-11T00:17:58;101971.25;;;17.50;32.99
60845;BME280;47984;51.250;6.712;2022-08-11T00:20:30;101967.97;;;17.45;32.89
60845;BME280;47984;51.250;6.712;2022-08-11T00:23:05;101965.50;;;17.40;32.89
60845;BME280;47984;51.250;6.712;2022-08-11T00:25:37;101965.69;;;17.36;32.54
60845;BME280;47984;51.250;6.712;2022-08-11T00:30:54;101964.31;;;17.25;32.99
60845;BME280;47984;51.250;6.712;2022-08-11T00:33:24;101956.63;;;17.21;32.71
60845;BME280;47984;51.250;6.712;2022-08-11T00:36:14;101963.78;;;17.17;32.64
60845;BME280;47984;51.250;6.712;2022-08-11T00:38:42;101956.91;;;17.13;32.67
60845;BME280;47984;51.250;6.712;2022-08-11T00:55:30;101965.81;;;16.86;33.02
60845;BME280;47984;51.250;6.712;2022-08-11T01:12:17;101964.19;;;16.58;33.21
60845;BME280;47984;51.250;6.712;2022-08-11T01:40:42;101956.84;;;16.18;33.76
60845;BME280;47984;51.250;6.712;2022-08-11T01:46:14;101953.59;;;16.08;33.89
60845;BME280;47984;51.250;6.712;2022-08-11T01:52:24;101949.47;;;16.01;33.70
60845;BME280;47984;51.250;6.712;2022-08-11T01:57:52;101958.47;;;15.94;33.73
60845;BME280;47984;51.250;6.712;2022-08-11T02:00:26;101960.34;;;15.90;34.05
60845;BME280;47984;51.250;6.712;2022-08-11T02:03:24;101957.84;;;15.85;33.84
60845;BME280;47984;51.250;6.712;2022-08-11T02:06:14;101957.09;;;15.82;34.23
60845;BME280;47984;51.250;6.712;2022-08-11T02:09:14;101961.53;;;15.80;34.16
60845;BME280;47984;51.250;6.712;2022-08-11T02:11:48;101962.59;;;15.74;33.89
60845;BME280;47984;51.250;6.712;2022-08-11T02:20:04;101956.72;;;15.66;33.88
60845;BME280;47984;51.250;6.712;2022-08-11T02:22:56;101954.34;;;15.58;34.32
60845;BME280;47984;51.250;6.712;2022-08-11T02:26:30;101955.25;;;15.57;34.02
60845;BME280;47984;51.250;6.712;2022-08-11T02:32:18;101958.13;;;15.50;33.94
60845;BME280;47984;51.250;6.712;2022-08-11T02:35:17;101960.03;;;15.45;34.02
60845;BME280;47984;51.250;6.712;2022-08-11T02:37:53;101964.44;;;15.42;34.48
60845;BME280;47984;51.250;6.712;2022-08-11T02:40:35;101955.88;;;15.37;34.28
60845;BME280;47984;51.250;6.712;2022-08-11T02:46:30;101962.97;;;15.34;34.62
60845;BME280;47984;51.250;6.712;2022-08-11T02:49:33;101959.69;;;15.26;34.67
60845;BME280;47984;51.250;6.712;2022-08-11T02:55:29;101965.03;;;15.23;34.90
60845;BME280;47984;51.250;6.712;2022-08-11T02:58:44;101967.75;;;15.19;34.85
60845;BME280;47984;51.250;6.712;2022-08-11T03:01:58;101967.94;;;15.12;34.43
60845;BME280;47984;51.250;6.712;2022-08-11T03:04:54;101970.63;;;15.10;34.43
60845;BME280;47984;51.250;6.712;2022-08-11T03:13:21;101970.84;;;15.03;34.48
60845;BME280;47984;51.250;6.712;2022-08-11T03:16:37;101974.44;;;14.99;34.55
60845;BME280;47984;51.250;6.712;2022-08-11T03:27:45;101963.53;;;14.84;34.84
60845;BME280;47984;51.250;6.712;2022-08-11T03:30:26;101960.09;;;14.82;35.24
60845;BME280;47984;51.250;6.712;2022-08-11T03:33:23;101963.66;;;14.80;34.77
60845;BME280;47984;51.250;6.712;2022-08-11T03:42:56;101963.06;;;14.68;34.95
60845;BME280;47984;51.250;6.712;2022-08-11T03:46:44;101960.53;;;14.65;35.14
60845;BME280;47984;51.250;6.712;2022-08-11T03:49:04;101956.28;;;14.61;35.29
60845;BME280;47984;51.250;6.712;2022-08-11T03:51:53;101959.00;;;14.58;35.35
60845;BME280;47984;51.250;6.712;2022-08-11T03:54:33;101965.16;;;14.56;35.20
60845;BME280;47984;51.250;6.712;2022-08-11T04:00:32;101966.16;;;14.50;35.33
60845;BME280;47984;51.250;6.712;2022-08-11T04:11:46;101964.75;;;14.38;35.24
60845;BME280;47984;51.250;6.712;2022-08-11T04:14:29;101968.31;;;14.34;35.62
60845;BME280;47984;51.250;6.712;2022-08-11T04:30:06;101966.16;;;14.16;35.66
60845;BME280;47984;51.250;6.712;2022-08-11T04:35:57;101960.25;;;14.09;36.18
60845;BME280;47984;51.250;6.712;2022-08-11T04:41:22;101957.75;;;14.04;36.14
60845;BME280;47984;51.250;6.712;2022-08-11T04:53:57;101966.63;;;13.97;36.21
60845;BME280;47984;51.250;6.712;2022-08-11T04:56:49;101969.22;;;13.99;36.23
60845;BME280;47984;51.250;6.712;2022-08-11T05:05:22;101971.06;;;13.95;36.43
60845;BME280;47984;51.250;6.712;2022-08-11T05:11:15;101967.59;;;13.95;36.51
60845;BME280;47984;51.250;6.712;2022-08-11T05:13:51;101978.03;;;13.95;36.34
60845;BME280;47984;51.250;6.712;2022-08-11T05:16:49;101979.75;;;13.96;36.39
60845;BME280;47984;51.250;6.712;2022-08-11T05:19:36;101980.59;;;13.96;36.34
60845;BME280;47984;51.250;6.712;2022-08-11T05:22:27;101979.69;;;13.97;36.50
60845;BME280;47984;51.250;6.712;2022-08-11T05:25:17;101980.59;;;13.98;36.61
60845;BME280;47984;51.250;6.712;2022-08-11T05:28:32;101982.16;;;14.03;36.43
60845;BME280;47984;51.250;6.712;2022-08-11T05:31:21;101991.69;;;14.06;36.74
60845;BME280;47984;51.250;6.712;2022-08-11T05:34:22;101993.31;;;14.12;36.78
60845;BME280;47984;51.250;6.712;2022-08-11T05:37:42;101994.91;;;14.17;36.46
60845;BME280;47984;51.250;6.712;2022-08-11T05:40:29;101987.03;;;14.19;36.52
60845;BME280;47984;51.250;6.712;2022-08-11T05:43:19;101992.94;;;14.27;36.98
60845;BME280;47984;51.250;6.712;2022-08-11T05:46:27;101986.72;;;14.31;36.90
60845;BME280;47984;51.250;6.712;2022-08-11T05:49:14;101999.53;;;14.42;36.71
60845;BME280;47984;51.250;6.712;2022-08-11T05:52:01;102001.94;;;14.49;37.05
60845;BME280;47984;51.250;6.712;2022-08-11T05:55:04;101992.28;;;14.53;36.79
60845;BME280;47984;51.250;6.712;2022-08-11T05:58:02;101997.25;;;14.64;36.64
60845;BME280;47984;51.250;6.712;2022-08-11T06:00:30;101999.69;;;14.70;36.73
60845;BME280;47984;51.250;6.712;2022-08-11T06:02:59;101999.44;;;14.79;36.71
60845;BME280;47984;51.250;6.712;2022-08-11T06:05:33;102000.91;;;14.89;36.86
60845;BME280;47984;51.250;6.712;2022-08-11T06:08:11;101998.97;;;14.96;37.01
60845;BME280;47984;51.250;6.712;2022-08-11T06:10:43;102002.19;;;15.06;36.87
60845;BME280;47984;51.250;6.712;2022-08-11T06:13:15;101996.69;;;15.15;36.75
60845;BME280;47984;51.250;6.712;2022-08-11T06:15:49;101995.56;;;15.24;37.18
60845;BME280;47984;51.250;6.712;2022-08-11T06:18:18;101990.19;;;15.28;36.99
60845;BME280;47984;51.250;6.712;2022-08-11T06:20:55;101989.00;;;15.40;37.04
60845;BME280;47984;51.250;6.712;2022-08-11T06:23:30;101993.06;;;15.50;37.07
60845;BME280;47984;51.250;6.712;2022-08-11T06:25:58;101989.31;;;15.59;36.80
60845;BME280;47984;51.250;6.712;2022-08-11T06:28:35;101989.88;;;15.69;37.07
60845;BME280;47984;51.250;6.712;2022-08-11T06:31:20;101986.03;;;15.79;37.00
60845;BME280;47984;51.250;6.712;2022-08-11T06:34:05;101982.28;;;15.87;36.91
60845;BME280;47984;51.250;6.712;2022-08-11T06:36:53;101983.69;;;15.98;37.15
60845;BME280;47984;51.250;6.712;2022-08-11T06:39:27;101982.41;;;16.09;37.02
60845;BME280;47984;51.250;6.712;2022-08-11T06:42:08;101990.84;;;16.21;36.85
60845;BME280;47984;51.250;6.712;2022-08-11T06:44:42;101976.50;;;16.31;37.04
60845;BME280;47984;51.250;6.712;2022-08-11T06:47:11;101978.72;;;16.42;37.00
60845;BME280;47984;51.250;6.712;2022-08-11T06:49:43;101983.63;;;16.52;36.83
60845;BME280;47984;51.250;6.712;2022-08-11T06:52:35;101987.53;;;16.66;37.04
60845;BME280;47984;51.250;6.712;2022-08-11T06:55:10;101981.91;;;16.76;37.40
60845;BME280;47984;51.250;6.712;2022-08-11T06:57:57;101981.38;;;16.90;37.50
60845;BME280;47984;51.250;6.712;2022-08-11T07:00:46;101984.50;;;17.01;36.71
60845;BME280;47984;51.250;6.712;2022-08-11T07:03:16;101984.94;;;17.13;36.78
60845;BME280;47984;51.250;6.712;2022-08-11T07:14:52;101977.69;;;17.65;36.88
60845;BME280;47984;51.250;6.712;2022-08-11T07:17:44;101984.13;;;17.80;37.21
60845;BME280;47984;51.250;6.712;2022-08-11T07:20:37;101976.69;;;17.91;37.21
60845;BME280;47984;51.250;6.712;2022-08-11T07:23:30;101982.06;;;18.08;36.59
60845;BME280;47984;51.250;6.712;2022-08-11T07:26:21;101975.38;;;18.22;37.01
60845;BME280;47984;51.250;6.712;2022-08-11T07:29:12;101977.31;;;18.38;36.42
60845;BME280;47984;51.250;6.712;2022-08-11T07:31:47;101981.22;;;18.50;36.73
60845;BME280;47984;51.250;6.712;2022-08-11T07:34:34;101975.28;;;18.66;36.36
60845;BME280;47984;51.250;6.712;2022-08-11T07:37:10;101972.72;;;18.83;37.09
60845;BME280;47984;51.250;6.712;2022-08-11T07:39:45;101978.16;;;18.99;37.05
60845;BME280;47984;51.250;6.712;2022-08-11T07:42:15;101966.09;;;19.14;36.41
60845;BME280;47984;51.250;6.712;2022-08-11T07:44:45;101965.50;;;19.26;36.18
60845;BME280;47984;51.250;6.712;2022-08-11T07:47:34;101968.22;;;19.43;36.88
60845;BME280;47984;51.250;6.712;2022-08-11T07:50:21;101966.63;;;19.58;36.09
60845;BME280;47984;51.250;6.712;2022-08-11T07:53:07;101955.44;;;19.70;36.60
60845;BME280;47984;51.250;6.712;2022-08-11T07:55:34;101962.59;;;19.87;35.84
60845;BME280;47984;51.250;6.712;2022-08-11T07:58:22;101964.47;;;20.03;36.36
60845;BME280;47984;51.250;6.712;2022-08-11T08:01:23;101955.75;;;20.18;36.41
60845;BME280;47984;51.250;6.712;2022-08-11T08:04:12;101950.69;;;20.31;36.44
60845;BME280;47984;51.250;6.712;2022-08-11T08:07:01;101956.88;;;20.47;35.74
60845;BME280;47984;51.250;6.712;2022-08-11T08:09:48;101956.22;;;20.61;36.58
60845;BME280;47984;51.250;6.712;2022-08-11T08:12:34;101962.53;;;20.74;35.85
60845;BME280;47984;51.250;6.712;2022-08-11T08:15:21;101959.22;;;20.86;35.71
60845;BME280;47984;51.250;6.712;2022-08-11T08:18:08;101954.91;;;21.01;35.87
60845;BME280;47984;51.250;6.712;2022-08-11T08:20:54;101955.13;;;21.14;36.28
60845;BME280;47984;51.250;6.712;2022-08-11T08:23:25;101956.22;;;21.26;35.79
60845;BME280;47984;51.250;6.712;2022-08-11T08:26:02;101959.97;;;21.38;35.98
60845;BME280;47984;51.250;6.712;2022-08-11T08:28:31;101960.31;;;21.47;35.67
60845;BME280;47984;51.250;6.712;2022-08-11T08:31:00;101955.34;;;21.57;35.24
60845;BME280;47984;51.250;6.712;2022-08-11T08:33:29;101953.88;;;21.67;35.98
60845;BME280;47984;51.250;6.712;2022-08-11T08:36:02;101956.78;;;21.78;35.72
60845;BME280;47984;51.250;6.712;2022-08-11T08:38:47;101952.56;;;21.90;35.40
60845;BME280;47984;51.250;6.712;2022-08-11T08:41:22;101959.88;;;22.01;35.41
60845;BME280;47984;51.250;6.712;2022-08-11T08:43:52;101948.75;;;22.10;35.33
60845;BME280;47984;51.250;6.712;2022-08-11T08:46:29;101957.84;;;22.20;35.06
60845;BME280;47984;51.250;6.712;2022-08-11T08:49:02;101952.09;;;22.28;35.24
60845;BME280;47984;51.250;6.712;2022-08-11T08:51:31;101961.78;;;22.43;35.79
60845;BME280;47984;51.250;6.712;2022-08-11T08:54:32;101961.13;;;22.54;35.50
60845;BME280;47984;51.250;6.712;2022-08-11T08:57:04;101960.56;;;22.63;35.32
60845;BME280;47984;51.250;6.712;2022-08-11T08:59:39;101957.25;;;22.74;34.75
60845;BME280;47984;51.250;6.712;2022-08-11T09:02:18;101958.38;;;22.84;35.46
60845;BME280;47984;51.250;6.712;2022-08-11T09:05:02;101956.97;;;22.93;35.07
60845;BME280;47984;51.250;6.712;2022-08-11T09:07:30;101957.34;;;23.01;35.19
60845;BME280;47984;51.250;6.712;2022-08-11T09:10:07;101957.50;;;23.12;34.69
60845;BME280;47984;51.250;6.712;2022-08-11T09:12:37;101964.13;;;23.19;35.31
60845;BME280;47984;51.250;6.712;2022-08-11T09:15:05;101957.50;;;23.27;34.70
60845;BME280;47984;51.250;6.712;2022-08-11T09:17:40;101955.94;;;23.37;35.29
60845;BME280;47984;51.250;6.712;2022-08-11T09:20:25;101955.53;;;23.43;34.48
60845;BME280;47984;51.250;6.712;2022-08-11T09:22:56;101955.88;;;23.51;35.03
60845;BME280;47984;51.250;6.712;2022-08-11T09:26:03;101949.94;;;23.60;35.17
60845;BME280;47984;51.250;6.712;2022-08-11T09:28:57;101948.53;;;23.69;35.19
60845;BME280;47984;51.250;6.712;2022-08-11T09:31:31;101947.19;;;23.76;34.97
60845;BME280;47984;51.250;6.712;2022-08-11T09:34:08;101948.34;;;23.85;34.19
60845;BME280;47984;51.250;6.712;2022-08-11T09:36:37;101939.97;;;23.91;34.46
60845;BME280;47984;51.250;6.712;2022-08-11T09:39:25;101941.16;;;24.00;34.20
60845;BME280;47984;51.250;6.712;2022-08-11T09:42:12;101938.09;;;24.06;34.46
60845;BME280;47984;51.250;6.712;2022-08-11T09:44:49;101939.28;;;24.15;34.37
60845;BME280;47984;51.250;6.712;2022-08-11T09:47:25;101931.75;;;24.21;34.67
60845;BME280;47984;51.250;6.712;2022-08-11T09:49:55;101932.94;;;24.30;34.64
60845;BME280;47984;51.250;6.712;2022-08-11T09:52:28;101935.88;;;24.38;34.73
60845;BME280;47984;51.250;6.712;2022-08-11T09:54:57;101931.09;;;24.43;34.07
60845;BME280;47984;51.250;6.712;2022-08-11T09:57:25;101930.38;;;24.54;33.82
60845;BME280;47984;51.250;6.712;2022-08-11T10:00:11;101930.44;;;24.65;33.69
60845;BME280;47984;51.250;6.712;2022-08-11T10:02:45;101937.13;;;24.71;34.38
60845;BME280;47984;51.250;6.712;2022-08-11T10:05:18;101929.59;;;24.77;34.39
60845;BME280;47984;51.250;6.712;2022-08-11T10:08:06;101920.13;;;24.86;33.74
60845;BME280;47984;51.250;6.712;2022-08-11T10:10:35;101918.63;;;24.95;33.28
60845;BME280;47984;51.250;6.712;2022-08-11T10:13:19;101917.09;;;25.04;34.11
60845;BME280;47984;51.250;6.712;2022-08-11T10:16:11;101912.19;;;25.10;33.54
60845;BME280;47984;51.250;6.712;2022-08-11T10:18:44;101914.25;;;25.18;33.30
60845;BME280;47984;51.250;6.712;2022-08-11T10:21:36;101911.91;;;25.26;33.45
60845;BME280;47984;51.250;6.712;2022-08-11T10:24:05;101898.13;;;25.32;33.71
60845;BME280;47984;51.250;6.712;2022-08-11T10:26:53;101901.22;;;25.39;33.13
60845;BME280;47984;51.250;6.712;2022-08-11T10:29:26;101898.94;;;25.45;33.47
60845;BME280;47984;51.250;6.712;2022-08-11T10:32:27;101893.06;;;25.53;33.18
60845;BME280;47984;51.250;6.712;2022-08-11T10:35:27;101891.72;;;25.59;32.83
60845;BME280;47984;51.250;6.712;2022-08-11T10:37:55;101888.59;;;25.65;33.32
60845;BME280;47984;51.250;6.712;2022-08-11T10:40:40;101886.44;;;25.70;33.24
60845;BME280;47984;51.250;6.712;2022-08-11T10:43:11;101877.97;;;25.76;33.27
60845;BME280;47984;51.250;6.712;2022-08-11T10:45:59;101877.50;;;25.82;33.06
60845;BME280;47984;51.250;6.712;2022-08-11T10:48:57;101867.34;;;25.87;33.06
60845;BME280;47984;51.250;6.712;2022-08-11T10:51:26;101873.94;;;25.95;32.61
60845;BME280;47984;51.250;6.712;2022-08-11T10:54:16;101865.47;;;26.01;32.96
60845;BME280;47984;51.250;6.712;2022-08-11T10:57:02;101865.09;;;26.05;32.74
60845;BME280;47984;51.250;6.712;2022-08-11T10:59:48;101861.25;;;26.09;32.36
60845;BME280;47984;51.250;6.712;2022-08-11T11:02:16;101861.69;;;26.14;32.46
60845;BME280;47984;51.250;6.712;2022-08-11T11:05:11;101852.38;;;26.20;32.38
60845;BME280;47984;51.250;6.712;2022-08-11T11:10:10;101840.75;;;26.32;32.46
60845;BME280;47984;51.250;6.712;2022-08-11T11:15:25;101852.78;;;26.49;32.13
60845;BME280;47984;51.250;6.712;2022-08-11T11:18:25;101845.38;;;26.53;32.42
60845;BME280;47984;51.250;6.712;2022-08-11T11:20:58;101843.16;;;26.58;32.30
60845;BME280;47984;51.250;6.712;2022-08-11T11:23:33;101843.91;;;26.60;32.27
60845;BME280;47984;51.250;6.712;2022-08-11T11:32:28;101827.28;;;26.68;31.78
60845;BME280;47984;51.250;6.712;2022-08-11T11:35:35;101826.16;;;26.70;31.61
60845;BME280;47984;51.250;6.712;2022-08-11T11:37:57;101814.66;;;26.70;32.01
60845;BME280;47984;51.250;6.712;2022-08-11T11:40:31;101810.66;;;26.75;32.18
60845;BME280;47984;51.250;6.712;2022-08-11T11:42:59;101798.88;;;26.78;32.06
60845;BME280;47984;51.250;6.712;2022-08-11T11:45:27;101814.50;;;26.82;32.02
60845;BME280;47984;51.250;6.712;2022-08-11T11:47:57;101807.72;;;26.90;31.42
60845;BME280;47984;51.250;6.712;2022-08-11T11:50:34;101812.53;;;26.96;31.73
60845;BME280;47984;51.250;6.712;2022-08-11T11:53:07;101806.00;;;27.00;31.72
60845;BME280;47984;51.250;6.712;2022-08-11T11:55:36;101800.41;;;27.03;31.69
60845;BME280;47984;51.250;6.712;2022-08-11T11:58:04;101800.00;;;27.08;31.47
60845;BME280;47984;51.250;6.712;2022-08-11T12:00:51;101791.88;;;27.09;31.48
60845;BME280;47984;51.250;6.712;2022-08-11T12:03:38;101796.13;;;27.12;31.24
60845;BME280;47984;51.250;6.712;2022-08-11T12:06:07;101795.13;;;27.13;31.16
60845;BME280;47984;51.250;6.712;2022-08-11T12:08:36;101788.81;;;27.14;31.08
60845;BME280;47984;51.250;6.712;2022-08-11T12:11:06;101781.78;;;27.13;31.08
60845;BME280;47984;51.250;6.712;2022-08-11T12:13:54;101787.97;;;27.13;31.24
60845;BME280;47984;51.250;6.712;2022-08-11T12:16:23;101772.94;;;27.12;31.11
60845;BME280;47984;51.250;6.712;2022-08-11T12:19:03;101772.22;;;27.10;30.96
60845;BME280;47984;51.250;6.712;2022-08-11T12:21:33;101772.09;;;27.12;30.89
60845;BME280;47984;51.250;6.712;2022-08-11T12:24:01;101775.34;;;27.15;30.81
60845;BME280;47984;51.250;6.712;2022-08-11T12:26:47;101774.25;;;27.18;31.14
60845;BME280;47984;51.250;6.712;2022-08-11T12:29:35;101762.59;;;27.19;30.89
60845;BME280;47984;51.250;6.712;2022-08-11T12:32:09;101760.06;;;27.17;30.90
60845;BME280;47984;51.250;6.712;2022-08-11T12:34:37;101753.84;;;27.17;30.90
60845;BME280;47984;51.250;6.712;2022-08-11T12:37:05;101750.22;;;27.18;31.08
60845;BME280;47984;51.250;6.712;2022-08-11T12:40:10;101745.75;;;27.18;30.35
60845;BME280;47984;51.250;6.712;2022-08-11T12:43:21;101743.78;;;27.20;30.90
60845;BME280;47984;51.250;6.712;2022-08-11T12:46:18;101733.13;;;27.20;30.74
60845;BME280;47984;51.250;6.712;2022-08-11T12:48:53;101735.06;;;27.18;30.56
60845;BME280;47984;51.250;6.712;2022-08-11T12:51:44;101735.66;;;27.22;30.35
60845;BME280;47984;51.250;6.712;2022-08-11T13:00:18;101730.19;;;27.23;30.17
60845;BME280;47984;51.250;6.712;2022-08-11T13:03:06;101720.47;;;27.22;30.60
60845;BME280;47984;51.250;6.712;2022-08-11T13:05:55;101724.72;;;27.25;30.24
60845;BME280;47984;51.250;6.712;2022-08-11T13:08:24;101726.38;;;27.26;30.10
60845;BME280;47984;51.250;6.712;2022-08-11T13:10:53;101721.19;;;27.24;30.19
60845;BME280;47984;51.250;6.712;2022-08-11T13:13:40;101721.06;;;27.26;30.39
60845;BME280;47984;51.250;6.712;2022-08-11T13:16:27;101708.84;;;27.23;29.79
60845;BME280;47984;51.250;6.712;2022-08-11T13:18:59;101705.56;;;27.20;30.10
60845;BME280;47984;51.250;6.712;2022-08-11T13:21:28;101701.34;;;27.17;30.25
60845;BME280;47984;51.250;6.712;2022-08-11T13:23:56;101703.03;;;27.18;29.84
60845;BME280;47984;51.250;6.712;2022-08-11T13:26:30;101705.72;;;27.18;30.23
60845;BME280;47984;51.250;6.712;2022-08-11T13:29:15;101700.47;;;27.17;29.62
60845;BME280;47984;51.250;6.712;2022-08-11T13:31:43;101700.47;;;27.17;29.88
60845;BME280;47984;51.250;6.712;2022-08-11T13:34:11;101695.28;;;27.15;29.60
60845;BME280;47984;51.250;6.712;2022-08-11T13:36:39;101697.97;;;27.15;30.07
60845;BME280;47984;51.250;6.712;2022-08-11T13:39:07;101692.63;;;27.15;29.55
60845;BME280;47984;51.250;6.712;2022-08-11T13:41:36;101692.47;;;27.17;29.36
60845;BME280;47984;51.250;6.712;2022-08-11T13:44:06;101693.47;;;27.16;29.62
60845;BME280;47984;51.250;6.712;2022-08-11T13:46:34;101690.41;;;27.20;29.94
60845;BME280;47984;51.250;6.712;2022-08-11T13:49:02;101687.75;;;27.20;29.13
60845;BME280;47984;51.250;6.712;2022-08-11T13:51:31;101690.16;;;27.23;29.35
60845;BME280;47984;51.250;6.712;2022-08-11T13:54:04;101691.69;;;27.26;29.33
60845;BME280;47984;51.250;6.712;2022-08-11T13:56:33;101682.00;;;27.25;29.33
60845;BME280;47984;51.250;6.712;2022-08-11T13:59:02;101684.56;;;27.26;29.42
60845;BME280;47984;51.250;6.712;2022-08-11T14:01:33;101677.22;;;27.28;28.95
60845;BME280;47984;51.250;6.712;2022-08-11T14:04:27;101670.22;;;27.27;29.25
60845;BME280;47984;51.250;6.712;2022-08-11T14:06:59;101670.06;;;27.29;29.02
60845;BME280;47984;51.250;6.712;2022-08-11T14:09:31;101670.94;;;27.29;29.06
60845;BME280;47984;51.250;6.712;2022-08-11T14:12:06;101664.63;;;27.31;29.32
60845;BME280;47984;51.250;6.712;2022-08-11T14:15:08;101671.63;;;27.32;28.87
60845;BME280;47984;51.250;6.712;2022-08-11T14:17:38;101668.00;;;27.33;28.82
60845;BME280;47984;51.250;6.712;2022-08-11T14:20:16;101656.91;;;27.37;28.87
60845;BME280;47984;51.250;6.712;2022-08-11T14:23:04;101658.47;;;27.40;28.80
60845;BME280;47984;51.250;6.712;2022-08-11T14:25:32;101655.81;;;27.40;28.73
60845;BME280;47984;51.250;6.712;2022-08-11T14:28:19;101657.94;;;27.46;28.69
60845;BME280;47984;51.250;6.712;2022-08-11T14:31:02;101650.78;;;27.46;28.44
60845;BME280;47984;51.250;6.712;2022-08-11T14:33:31;101657.56;;;27.50;28.98
60845;BME280;47984;51.250;6.712;2022-08-11T14:36:21;101649.44;;;27.52;28.74
60845;BME280;47984;51.250;6.712;2022-08-11T14:38:49;101649.84;;;27.57;28.67
60845;BME280;47984;51.250;6.712;2022-08-11T14:41:17;101645.22;;;27.59;28.91
60845;BME280;47984;51.250;6.712;2022-08-11T14:44:25;101648.72;;;27.60;28.47
60845;BME280;47984;51.250;6.712;2022-08-11T14:47:11;101632.97;;;27.57;28.28
60845;BME280;47984;51.250;6.712;2022-08-11T14:49:58;101638.78;;;27.62;28.52
60845;BME280;47984;51.250;6.712;2022-08-11T14:52:48;101637.66;;;27.64;28.29
60845;BME280;47984;51.250;6.712;2022-08-11T14:55:17;101633.88;;;27.67;28.57
60845;BME280;47984;51.250;6.712;2022-08-11T14:58:10;101631.63;;;27.72;28.48
60845;BME280;47984;51.250;6.712;2022-08-11T15:00:43;101638.25;;;27.78;28.45
60845;BME280;47984;51.250;6.712;2022-08-11T15:03:13;101628.13;;;27.81;28.46
60845;BME280;47984;51.250;6.712;2022-08-11T15:08:26;101620.41;;;27.88;27.93
60845;BME280;47984;51.250;6.712;2022-08-11T15:11:15;101611.44;;;27.89;28.18
60845;BME280;47984;51.250;6.712;2022-08-11T15:14:04;101612.13;;;27.91;28.37
60845;BME280;47984;51.250;6.712;2022-08-11T15:16:32;101615.50;;;27.93;27.76
60845;BME280;47984;51.250;6.712;2022-08-11T15:19:19;101610.88;;;27.95;28.17
60845;BME280;47984;51.250;6.712;2022-08-11T15:21:49;101611.56;;;27.97;28.01
60845;BME280;47984;51.250;6.712;2022-08-11T15:24:35;101607.09;;;27.97;27.86
60845;BME280;47984;51.250;6.712;2022-08-11T15:27:11;101603.28;;;28.00;27.94
60845;BME280;47984;51.250;6.712;2022-08-11T15:30:00;101603.88;;;28.04;28.22
60845;BME280;47984;51.250;6.712;2022-08-11T15:33:02;101599.38;;;28.04;27.84
60845;BME280;47984;51.250;6.712;2022-08-11T15:35:50;101598.50;;;28.04;27.82
60845;BME280;47984;51.250;6.712;2022-08-11T15:38:41;101603.47;;;28.08;27.58
60845;BME280;47984;51.250;6.712;2022-08-11T15:41:14;101598.94;;;28.09;27.94
60845;BME280;47984;51.250;6.712;2022-08-11T15:44:06;101589.94;;;28.10;27.85
60845;BME280;47984;51.250;6.712;2022-08-11T15:47:17;101585.19;;;28.13;27.73
60845;BME280;47984;51.250;6.712;2022-08-11T15:49:50;101578.84;;;28.14;27.57
60845;BME280;47984;51.250;6.712;2022-08-11T15:52:45;101586.72;;;28.16;27.55
60845;BME280;47984;51.250;6.712;2022-08-11T15:55:15;101576.28;;;28.13;27.60
60845;BME280;47984;51.250;6.712;2022-08-11T15:57:45;101590.38;;;28.15;27.76
60845;BME280;47984;51.250;6.712;2022-08-11T16:00:33;101583.75;;;28.19;27.45
60845;BME280;47984;51.250;6.712;2022-08-11T16:03:41;101577.56;;;28.18;27.54
60845;BME280;47984;51.250;6.712;2022-08-11T16:06:53;101583.91;;;28.17;27.43
60845;BME280;47984;51.250;6.712;2022-08-11T16:12:24;101571.53;;;28.16;27.27
60845;BME280;47984;51.250;6.712;2022-08-11T16:14:57;101570.53;;;28.17;27.35
60845;BME280;47984;51.250;6.712;2022-08-11T16:17:49;101570.53;;;28.17;27.15
60845;BME280;47984;51.250;6.712;2022-08-11T16:20:21;101564.19;;;28.18;26.89
60845;BME280;47984;51.250;6.712;2022-08-11T16:22:51;101569.56;;;28.18;27.46
60845;BME280;47984;51.250;6.712;2022-08-11T16:25:29;101565.19;;;28.17;27.27
60845;BME280;47984;51.250;6.712;2022-08-11T16:28:19;101566.47;;;28.13;27.44
60845;BME280;47984;51.250;6.712;2022-08-11T16:30:48;101562.94;;;28.13;27.04
60845;BME280;47984;51.250;6.712;2022-08-11T16:33:16;101563.81;;;28.13;27.21
60845;BME280;47984;51.250;6.712;2022-08-11T16:36:04;101566.47;;;28.13;27.31
60845;BME280;47984;51.250;6.712;2022-08-11T16:38:52;101567.44;;;28.12;27.18
60845;BME280;47984;51.250;6.712;2022-08-11T16:41:21;101563.94;;;28.12;27.05
60845;BME280;47984;51.250;6.712;2022-08-11T16:44:12;101565.88;;;28.10;27.04
60845;BME280;47984;51.250;6.712;2022-08-11T16:47:07;101559.97;;;28.06;27.10
60845;BME280;47984;51.250;6.712;2022-08-11T16:49:40;101560.25;;;28.03;27.30
60845;BME280;47984;51.250;6.712;2022-08-11T16:52:13;101558.72;;;28.01;26.74
60845;BME280;47984;51.250;6.712;2022-08-11T16:54:43;101562.50;;;27.98;26.85
60845;BME280;47984;51.250;6.712;2022-08-11T16:57:21;101558.41;;;27.94;27.28
60845;BME280;47984;51.250;6.712;2022-08-11T17:00:09;101561.22;;;27.92;26.96
60845;BME280;47984;51.250;6.712;2022-08-11T17:02:45;101554.50;;;27.88;26.70
60845;BME280;47984;51.250;6.712;2022-08-11T17:05:33;101560.09;;;27.85;27.03